sensor_id;sensor_type;location;lat;lon;timestamp;temperature;humidity
29201;DHT22;16244;51.956;12.980;2023-04-21T00:00:26;7.20;99.90
29201;DHT22;16244;51.956;12.980;2023-04-21T00:02:53;7.20;99.90
29201;DHT22;16244;51.956;12.980;2023-04-21T00:05:21;7.10;99.90
29201;DHT22;16244;51.956;12.980;2023-04-21T00:07:49;7.00;99.90
29201;DHT22;16244;51.956;12.980;2023-04-21T00:10:19;6.90;99.90
29201;DHT22;16244;51.956;12.980;2023-04-21T00:12:47;7.00;99.90
29201;DHT22;16244;51.956;12.980;2023-04-21T00:15:15;6.90;99.90
29201;DHT22;16244;51.956;12.980;2023-04-21T00:17:43;6.90;99.90
29201;DHT22;16244;51.956;12.980;2023-04-21T00:20:11;6.90;99.90
29201;DHT22;16244;51.956;12.980;2023-04-21T00:22:40;6.80;99.90
29201;DHT22;16244;51.956;12.980;2023-04-21T00:25:08;6.80;99.90
29201;DHT22;16244;51.956;12.980;2023-04-21T00:27:37;6.70;99.90
29201;DHT22;16244;51.956;12.980;2023-04-21T00:30:06;6.70;99.90
29201;DHT22;16244;51.956;12.980;2023-04-21T00:32:34;6.60;99.90
29201;DHT22;16244;51.956;12.980;2023-04-21T00:35:01;6.60;99.90
29201;DHT22;16244;51.956;12.980;2023-04-21T00:37:29;6.50;99.90
29201;DHT22;16244;51.956;12.980;2023-04-21T00:39:56;6.40;99.90
29201;DHT22;16244;51.956;12.980;2023-04-21T00:42:24;6.50;99.90
29201;DHT22;16244;51.956;12.980;2023-04-21T00:44:54;6.50;99.90
29201;DHT22;16244;51.956;12.980;2023-04-21T00:47:22;6.50;99.90
29201;DHT22;16244;51.956;12.980;2023-04-21T00:49:50;6.50;99.90
29201;DHT22;16244;51.956;12.980;2023-04-21T00:52:17;6.60;99.90
29201;DHT22;16244;51.956;12.980;2023-04-21T00:54:46;6.40;99.90
29201;DHT22;16244;51.956;12.980;2023-04-21T00:57:15;6.30;99.90
29201;DHT22;16244;51.956;12.980;2023-04-21T00:59:43;6.30;99.90
29201;DHT22;16244;51.956;12.980;2023-04-21T01:02:13;6.30;99.90
29201;DHT22;16244;51.956;12.980;2023-04-21T01:04:41;6.30;99.90
29201;DHT22;16244;51.956;12.980;2023-04-21T01:07:10;6.40;99.90
29201;DHT22;16244;51.956;12.980;2023-04-21T01:09:41;6.40;99.90
29201;DHT22;16244;51.956;12.980;2023-04-21T01:12:12;6.60;99.90
29201;DHT22;16244;51.956;12.980;2023-04-21T01:14:40;6.50;99.90
29201;DHT22;16244;51.956;12.980;2023-04-21T01:17:08;6.40;99.90
29201;DHT22;16244;51.956;12.980;2023-04-21T01:19:39;6.40;99.90
29201;DHT22;16244;51.956;12.980;2023-04-21T01:22:10;6.40;99.90
29201;DHT22;16244;51.956;12.980;2023-04-21T01:24:38;6.40;99.90
29201;DHT22;16244;51.956;12.980;2023-04-21T01:27:10;6.40;99.90
29201;DHT22;16244;51.956;12.980;2023-04-21T01:29:40;6.40;99.90
29201;DHT22;16244;51.956;12.980;2023-04-21T01:32:10;6.40;99.90
29201;DHT22;16244;51.956;12.980;2023-04-21T01:34:41;6.30;99.90
29201;DHT22;16244;51.956;12.980;2023-04-21T01:37:13;6.30;99.90
29201;DHT22;16244;51.956;12.980;2023-04-21T01:39:43;6.30;99.90
29201;DHT22;16244;51.956;12.980;2023-04-21T01:42:12;6.30;99.90
29201;DHT22;16244;51.956;12.980;2023-04-21T01:44:41;6.20;99.90
29201;DHT22;16244;51.956;12.980;2023-04-21T01:47:09;6.30;99.90
29201;DHT22;16244;51.956;12.980;2023-04-21T01:49:37;6.30;99.90
29201;DHT22;16244;51.956;12.980;2023-04-21T01:52:04;6.40;99.90
29201;DHT22;16244;51.956;12.980;2023-04-21T01:54:34;6.50;99.90
29201;DHT22;16244;51.956;12.980;2023-04-21T01:57:02;6.50;99.90
29201;DHT22;16244;51.956;12.980;2023-04-21T01:59:33;6.50;99.90
29201;DHT22;16244;51.956;12.980;2023-04-21T02:02:01;6.60;99.90
29201;DHT22;16244;51.956;12.980;2023-04-21T02:04:29;6.60;99.90
29201;DHT22;16244;51.956;12.980;2023-04-21T02:06:57;6.60;99.90
29201;DHT22;16244;51.956;12.980;2023-04-21T02:09:25;6.60;99.90
29201;DHT22;16244;51.956;12.980;2023-04-21T02:11:55;6.50;99.90
29201;DHT22;16244;51.956;12.980;2023-04-21T02:14:23;6.60;99.90
29201;DHT22;16244;51.956;12.980;2023-04-21T02:16:51;6.60;99.90
29201;DHT22;16244;51.956;12.980;2023-04-21T02:19:19;6.50;99.90
29201;DHT22;16244;51.956;12.980;2023-04-21T02:21:46;6.50;99.90
29201;DHT22;16244;51.956;12.980;2023-04-21T02:24:14;6.50;99.90
29201;DHT22;16244;51.956;12.980;2023-04-21T02:26:42;6.50;99.90
29201;DHT22;16244;51.956;12.980;2023-04-21T02:29:11;6.50;99.90
29201;DHT22;16244;51.956;12.980;2023-04-21T02:31:39;6.40;99.90
29201;DHT22;16244;51.956;12.980;2023-04-21T02:34:07;6.40;99.90
29201;DHT22;16244;51.956;12.980;2023-04-21T02:36:35;6.40;99.90
29201;DHT22;16244;51.956;12.980;2023-04-21T02:39:02;6.50;99.90
29201;DHT22;16244;51.956;12.980;2023-04-21T02:41:30;6.40;99.90
29201;DHT22;16244;51.956;12.980;2023-04-21T02:43:58;6.30;99.90
29201;DHT22;16244;51.956;12.980;2023-04-21T02:46:27;6.50;99.90
29201;DHT22;16244;51.956;12.980;2023-04-21T02:48:55;6.50;99.90
29201;DHT22;16244;51.956;12.980;2023-04-21T02:51:23;6.40;99.90
29201;DHT22;16244;51.956;12.980;2023-04-21T02:53:51;6.50;99.90
29201;DHT22;16244;51.956;12.980;2023-04-21T02:56:19;6.50;99.90
29201;DHT22;16244;51.956;12.980;2023-04-21T02:58:48;6.50;99.90
29201;DHT22;16244;51.956;12.980;2023-04-21T03:01:16;6.60;99.90
29201;DHT22;16244;51.956;12.980;2023-04-21T03:03:46;6.60;99.90
29201;DHT22;16244;51.956;12.980;2023-04-21T03:06:16;6.70;99.90
29201;DHT22;16244;51.956;12.980;2023-04-21T03:08:45;6.60;99.90
29201;DHT22;16244;51.956;12.980;2023-04-21T03:11:14;6.70;99.90
29201;DHT22;16244;51.956;12.980;2023-04-21T03:13:41;6.70;99.90
29201;DHT22;16244;51.956;12.980;2023-04-21T03:16:09;6.60;99.90
29201;DHT22;16244;51.956;12.980;2023-04-21T03:18:37;6.70;99.90
29201;DHT22;16244;51.956;12.980;2023-04-21T03:21:06;6.60;99.90
29201;DHT22;16244;51.956;12.980;2023-04-21T03:23:34;6.50;99.90
29201;DHT22;16244;51.956;12.980;2023-04-21T03:26:05;6.60;99.90
29201;DHT22;16244;51.956;12.980;2023-04-21T03:28:33;6.60;99.90
29201;DHT22;16244;51.956;12.980;2023-04-21T03:31:01;6.60;99.90
29201;DHT22;16244;51.956;12.980;2023-04-21T03:33:28;6.60;99.90
29201;DHT22;16244;51.956;12.980;2023-04-21T03:35:56;6.50;99.90
29201;DHT22;16244;51.956;12.980;2023-04-21T03:38:27;6.60;99.90
29201;DHT22;16244;51.956;12.980;2023-04-21T03:40:55;6.60;99.90
29201;DHT22;16244;51.956;12.980;2023-04-21T03:43:23;6.50;99.90
29201;DHT22;16244;51.956;12.980;2023-04-21T03:45:51;6.50;99.90
29201;DHT22;16244;51.956;12.980;2023-04-21T03:48:19;6.50;99.90
29201;DHT22;16244;51.956;12.980;2023-04-21T03:50:46;6.40;99.90
29201;DHT22;16244;51.956;12.980;2023-04-21T03:53:15;6.30;99.90
29201;DHT22;16244;51.956;12.980;2023-04-21T03:55:45;6.30;99.90
29201;DHT22;16244;51.956;12.980;2023-04-21T03:58:14;6.30;99.90
29201;DHT22;16244;51.956;12.980;2023-04-21T04:00:41;6.20;99.90
29201;DHT22;16244;51.956;12.980;2023-04-21T04:03:09;6.10;99.90
29201;DHT22;16244;51.956;12.980;2023-04-21T04:05:36;6.20;99.90
29201;DHT22;16244;51.956;12.980;2023-04-21T04:08:04;6.10;99.90
29201;DHT22;16244;51.956;12.980;2023-04-21T04:10:33;6.00;99.90
29201;DHT22;16244;51.956;12.980;2023-04-21T04:13:02;6.00;99.90
29201;DHT22;16244;51.956;12.980;2023-04-21T04:15:30;6.10;99.90
29201;DHT22;16244;51.956;12.980;2023-04-21T04:17:59;6.10;99.90
29201;DHT22;16244;51.956;12.980;2023-04-21T04:20:30;6.10;99.90
29201;DHT22;16244;51.956;12.980;2023-04-21T04:22:58;6.00;99.90
29201;DHT22;16244;51.956;12.980;2023-04-21T04:25:25;6.00;99.90
29201;DHT22;16244;51.956;12.980;2023-04-21T04:27:53;6.00;99.90
29201;DHT22;16244;51.956;12.980;2023-04-21T04:30:22;6.00;99.90
29201;DHT22;16244;51.956;12.980;2023-04-21T04:32:53;5.90;99.90
29201;DHT22;16244;51.956;12.980;2023-04-21T04:35:23;5.90;99.90
29201;DHT22;16244;51.956;12.980;2023-04-21T04:37:50;6.00;99.90
29201;DHT22;16244;51.956;12.980;2023-04-21T04:40:20;6.00;99.90
29201;DHT22;16244;51.956;12.980;2023-04-21T04:42:48;6.00;99.90
29201;DHT22;16244;51.956;12.980;2023-04-21T04:45:16;6.00;99.90
29201;DHT22;16244;51.956;12.980;2023-04-21T04:47:49;6.00;99.90
29201;DHT22;16244;51.956;12.980;2023-04-21T04:50:17;6.00;99.90
29201;DHT22;16244;51.956;12.980;2023-04-21T04:52:44;6.00;99.90
29201;DHT22;16244;51.956;12.980;2023-04-21T04:55:17;6.00;99.90
29201;DHT22;16244;51.956;12.980;2023-04-21T04:57:45;6.20;99.90
29201;DHT22;16244;51.956;12.980;2023-04-21T05:00:13;6.30;99.90
29201;DHT22;16244;51.956;12.980;2023-04-21T05:02:41;6.40;99.90
29201;DHT22;16244;51.956;12.980;2023-04-21T05:05:10;6.50;99.90
29201;DHT22;16244;51.956;12.980;2023-04-21T05:07:38;6.60;99.90
29201;DHT22;16244;51.956;12.980;2023-04-21T05:10:07;6.60;99.90
29201;DHT22;16244;51.956;12.980;2023-04-21T05:12:34;6.80;99.90
29201;DHT22;16244;51.956;12.980;2023-04-21T05:15:03;6.90;99.90
29201;DHT22;16244;51.956;12.980;2023-04-21T05:17:32;7.00;99.90
29201;DHT22;16244;51.956;12.980;2023-04-21T05:20:00;7.10;99.90
29201;DHT22;16244;51.956;12.980;2023-04-21T05:22:29;7.10;99.90
29201;DHT22;16244;51.956;12.980;2023-04-21T05:24:57;7.20;99.90
29201;DHT22;16244;51.956;12.980;2023-04-21T05:27:27;7.20;99.90
29201;DHT22;16244;51.956;12.980;2023-04-21T05:29:54;7.30;99.90
29201;DHT22;16244;51.956;12.980;2023-04-21T05:32:22;7.40;99.90
29201;DHT22;16244;51.956;12.980;2023-04-21T05:34:49;7.50;99.90
29201;DHT22;16244;51.956;12.980;2023-04-21T05:37:17;7.60;99.90
29201;DHT22;16244;51.956;12.980;2023-04-21T05:39:46;7.80;99.90
29201;DHT22;16244;51.956;12.980;2023-04-21T05:42:14;7.90;99.90
29201;DHT22;16244;51.956;12.980;2023-04-21T05:44:44;8.00;99.90
29201;DHT22;16244;51.956;12.980;2023-04-21T05:47:14;8.20;99.90
29201;DHT22;16244;51.956;12.980;2023-04-21T05:49:42;8.30;99.90
29201;DHT22;16244;51.956;12.980;2023-04-21T05:52:16;8.50;99.90
29201;DHT22;16244;51.956;12.980;2023-04-21T05:54:43;8.60;99.90
29201;DHT22;16244;51.956;12.980;2023-04-21T05:57:12;8.70;99.90
29201;DHT22;16244;51.956;12.980;2023-04-21T05:59:43;8.90;99.90
29201;DHT22;16244;51.956;12.980;2023-04-21T06:02:11;9.10;99.90
29201;DHT22;16244;51.956;12.980;2023-04-21T06:04:38;9.20;99.90
29201;DHT22;16244;51.956;12.980;2023-04-21T06:07:07;9.20;99.90
29201;DHT22;16244;51.956;12.980;2023-04-21T06:09:38;9.30;99.90
29201;DHT22;16244;51.956;12.980;2023-04-21T06:12:07;9.50;99.90
29201;DHT22;16244;51.956;12.980;2023-04-21T06:14:35;9.60;99.90
29201;DHT22;16244;51.956;12.980;2023-04-21T06:17:03;9.70;99.90
29201;DHT22;16244;51.956;12.980;2023-04-21T06:19:35;9.80;99.90
29201;DHT22;16244;51.956;12.980;2023-04-21T06:22:03;10.00;99.90
29201;DHT22;16244;51.956;12.980;2023-04-21T06:24:31;10.10;99.90
29201;DHT22;16244;51.956;12.980;2023-04-21T06:26:59;10.30;99.90
29201;DHT22;16244;51.956;12.980;2023-04-21T06:29:27;10.50;99.90
29201;DHT22;16244;51.956;12.980;2023-04-21T06:31:56;10.70;99.90
29201;DHT22;16244;51.956;12.980;2023-04-21T06:34:24;10.80;99.90
29201;DHT22;16244;51.956;12.980;2023-04-21T06:36:51;11.10;99.90
29201;DHT22;16244;51.956;12.980;2023-04-21T06:39:19;11.30;99.90
29201;DHT22;16244;51.956;12.980;2023-04-21T06:41:47;11.50;99.90
29201;DHT22;16244;51.956;12.980;2023-04-21T06:44:14;11.70;99.90
29201;DHT22;16244;51.956;12.980;2023-04-21T06:46:42;11.90;99.90
29201;DHT22;16244;51.956;12.980;2023-04-21T06:49:13;12.10;99.90
29201;DHT22;16244;51.956;12.980;2023-04-21T06:51:41;12.30;99.90
29201;DHT22;16244;51.956;12.980;2023-04-21T06:54:09;12.30;99.90
29201;DHT22;16244;51.956;12.980;2023-04-21T06:56:37;12.30;99.90
29201;DHT22;16244;51.956;12.980;2023-04-21T06:59:04;12.40;99.90
29201;DHT22;16244;51.956;12.980;2023-04-21T07:01:32;12.70;99.90
29201;DHT22;16244;51.956;12.980;2023-04-21T07:04:02;12.90;99.90
29201;DHT22;16244;51.956;12.980;2023-04-21T07:06:35;12.90;99.90
29201;DHT22;16244;51.956;12.980;2023-04-21T07:09:03;12.90;99.90
29201;DHT22;16244;51.956;12.980;2023-04-21T07:11:30;13.10;99.90
29201;DHT22;16244;51.956;12.980;2023-04-21T07:13:58;13.30;99.90
29201;DHT22;16244;51.956;12.980;2023-04-21T07:16:27;13.50;99.90
29201;DHT22;16244;51.956;12.980;2023-04-21T07:18:55;13.80;99.90
29201;DHT22;16244;51.956;12.980;2023-04-21T07:21:23;13.80;99.90
29201;DHT22;16244;51.956;12.980;2023-04-21T07:23:53;13.60;99.90
29201;DHT22;16244;51.956;12.980;2023-04-21T07:26:24;13.60;99.90
29201;DHT22;16244;51.956;12.980;2023-04-21T07:28:51;13.70;99.90
29201;DHT22;16244;51.956;12.980;2023-04-21T07:31:20;14.00;99.90
29201;DHT22;16244;51.956;12.980;2023-04-21T07:33:48;14.10;99.90
29201;DHT22;16244;51.956;12.980;2023-04-21T07:36:16;14.40;99.90
29201;DHT22;16244;51.956;12.980;2023-04-21T07:38:46;14.80;99.90
29201;DHT22;16244;51.956;12.980;2023-04-21T07:41:15;15.20;99.50
29201;DHT22;16244;51.956;12.980;2023-04-21T07:43:42;15.30;99.90
29201;DHT22;16244;51.956;12.980;2023-04-21T07:46:10;15.60;96.00
29201;DHT22;16244;51.956;12.980;2023-04-21T07:48:38;15.60;93.40
29201;DHT22;16244;51.956;12.980;2023-04-21T07:51:06;15.50;97.90
29201;DHT22;16244;51.956;12.980;2023-04-21T07:53:33;15.40;93.00
29201;DHT22;16244;51.956;12.980;2023-04-21T07:56:01;15.60;96.30
29201;DHT22;16244;51.956;12.980;2023-04-21T07:58:32;15.50;92.80
29201;DHT22;16244;51.956;12.980;2023-04-21T08:01:00;15.80;96.80
29201;DHT22;16244;51.956;12.980;2023-04-21T08:03:29;16.10;94.70
29201;DHT22;16244;51.956;12.980;2023-04-21T08:05:57;16.40;95.10
29201;DHT22;16244;51.956;12.980;2023-04-21T08:08:24;16.60;92.90
29201;DHT22;16244;51.956;12.980;2023-04-21T08:10:54;16.70;92.00
29201;DHT22;16244;51.956;12.980;2023-04-21T08:13:22;16.70;83.00
29201;DHT22;16244;51.956;12.980;2023-04-21T08:15:52;16.80;87.60
29201;DHT22;16244;51.956;12.980;2023-04-21T08:18:24;16.90;86.70
29201;DHT22;16244;51.956;12.980;2023-04-21T08:20:51;17.20;82.60
29201;DHT22;16244;51.956;12.980;2023-04-21T08:23:19;17.00;90.70
29201;DHT22;16244;51.956;12.980;2023-04-21T08:25:46;17.50;90.90
29201;DHT22;16244;51.956;12.980;2023-04-21T08:28:14;17.60;81.00
29201;DHT22;16244;51.956;12.980;2023-04-21T08:30:41;18.00;92.70
29201;DHT22;16244;51.956;12.980;2023-04-21T08:33:11;17.80;79.90
29201;DHT22;16244;51.956;12.980;2023-04-21T08:35:40;18.30;76.80
29201;DHT22;16244;51.956;12.980;2023-04-21T08:38:09;18.20;86.50
29201;DHT22;16244;51.956;12.980;2023-04-21T08:40:39;18.50;82.00
29201;DHT22;16244;51.956;12.980;2023-04-21T08:43:07;18.30;74.60
29201;DHT22;16244;51.956;12.980;2023-04-21T08:45:38;18.40;84.60
29201;DHT22;16244;51.956;12.980;2023-04-21T08:48:07;18.70;89.70
29201;DHT22;16244;51.956;12.980;2023-04-21T08:50:43;19.20;83.90
29201;DHT22;16244;51.956;12.980;2023-04-21T08:53:12;19.50;69.10
29201;DHT22;16244;51.956;12.980;2023-04-21T08:55:41;19.80;71.20
29201;DHT22;16244;51.956;12.980;2023-04-21T08:58:09;20.30;69.50
29201;DHT22;16244;51.956;12.980;2023-04-21T09:00:37;19.90;64.40
29201;DHT22;16244;51.956;12.980;2023-04-21T09:03:06;19.60;68.60
29201;DHT22;16244;51.956;12.980;2023-04-21T09:05:36;19.80;69.20
29201;DHT22;16244;51.956;12.980;2023-04-21T09:08:08;20.10;67.50
29201;DHT22;16244;51.956;12.980;2023-04-21T09:10:42;20.30;63.50
29201;DHT22;16244;51.956;12.980;2023-04-21T09:13:13;20.80;63.40
29201;DHT22;16244;51.956;12.980;2023-04-21T09:15:41;21.40;63.90
29201;DHT22;16244;51.956;12.980;2023-04-21T09:18:13;20.80;53.90
29201;DHT22;16244;51.956;12.980;2023-04-21T09:20:41;20.70;54.50
29201;DHT22;16244;51.956;12.980;2023-04-21T09:23:11;20.50;58.70
29201;DHT22;16244;51.956;12.980;2023-04-21T09:25:40;20.80;60.00
29201;DHT22;16244;51.956;12.980;2023-04-21T09:28:09;21.50;58.10
29201;DHT22;16244;51.956;12.980;2023-04-21T09:30:37;21.60;53.10
29201;DHT22;16244;51.956;12.980;2023-04-21T09:33:05;21.80;56.20
29201;DHT22;16244;51.956;12.980;2023-04-21T09:35:34;21.90;55.30
29201;DHT22;16244;51.956;12.980;2023-04-21T09:38:03;22.50;54.20
29201;DHT22;16244;51.956;12.980;2023-04-21T09:40:32;22.50;52.70
29201;DHT22;16244;51.956;12.980;2023-04-21T09:43:00;22.70;51.20
29201;DHT22;16244;51.956;12.980;2023-04-21T09:45:28;23.10;52.10
29201;DHT22;16244;51.956;12.980;2023-04-21T09:47:57;22.30;51.80
29201;DHT22;16244;51.956;12.980;2023-04-21T09:50:26;22.00;53.00
29201;DHT22;16244;51.956;12.980;2023-04-21T09:52:55;22.20;50.80
29201;DHT22;16244;51.956;12.980;2023-04-21T09:55:25;22.20;53.00
29201;DHT22;16244;51.956;12.980;2023-04-21T09:57:57;22.20;53.00
29201;DHT22;16244;51.956;12.980;2023-04-21T10:00:26;22.50;51.10
29201;DHT22;16244;51.956;12.980;2023-04-21T10:02:56;22.20;53.50
29201;DHT22;16244;51.956;12.980;2023-04-21T10:05:25;22.50;53.20
29201;DHT22;16244;51.956;12.980;2023-04-21T10:07:54;22.50;48.20
29201;DHT22;16244;51.956;12.980;2023-04-21T10:10:25;22.60;51.30
29201;DHT22;16244;51.956;12.980;2023-04-21T10:12:55;21.80;50.10
29201;DHT22;16244;51.956;12.980;2023-04-21T10:15:30;21.80;50.30
29201;DHT22;16244;51.956;12.980;2023-04-21T10:18:20;22.40;52.80
29201;DHT22;16244;51.956;12.980;2023-04-21T10:20:55;22.40;49.10
29201;DHT22;16244;51.956;12.980;2023-04-21T10:23:27;22.80;51.60
29201;DHT22;16244;51.956;12.980;2023-04-21T10:26:03;22.60;51.80
29201;DHT22;16244;51.956;12.980;2023-04-21T10:28:46;22.50;49.50
29201;DHT22;16244;51.956;12.980;2023-04-21T10:31:22;22.50;49.40
29201;DHT22;16244;51.956;12.980;2023-04-21T10:34:16;23.00;50.40
29201;DHT22;16244;51.956;12.980;2023-04-21T10:37:09;22.80;48.60
29201;DHT22;16244;51.956;12.980;2023-04-21T10:39:55;22.80;49.30
29201;DHT22;16244;51.956;12.980;2023-04-21T10:42:28;22.70;48.40
29201;DHT22;16244;51.956;12.980;2023-04-21T10:45:05;22.70;50.10
29201;DHT22;16244;51.956;12.980;2023-04-21T10:47:42;22.90;48.50
29201;DHT22;16244;51.956;12.980;2023-04-21T10:50:21;22.40;48.70
29201;DHT22;16244;51.956;12.980;2023-04-21T10:52:56;22.40;49.40
29201;DHT22;16244;51.956;12.980;2023-04-21T10:55:28;22.30;49.60
29201;DHT22;16244;51.956;12.980;2023-04-21T10:57:56;22.40;49.70
29201;DHT22;16244;51.956;12.980;2023-04-21T11:00:26;22.70;48.50
29201;DHT22;16244;51.956;12.980;2023-04-21T11:02:59;23.10;49.90
29201;DHT22;16244;51.956;12.980;2023-04-21T11:05:33;23.00;48.30
29201;DHT22;16244;51.956;12.980;2023-04-21T11:08:09;22.90;47.30
29201;DHT22;16244;51.956;12.980;2023-04-21T11:10:52;22.20;48.30
29201;DHT22;16244;51.956;12.980;2023-04-21T11:13:22;22.50;46.20
29201;DHT22;16244;51.956;12.980;2023-04-21T11:15:58;22.50;46.50
29201;DHT22;16244;51.956;12.980;2023-04-21T11:18:42;22.20;44.70
29201;DHT22;16244;51.956;12.980;2023-04-21T11:21:11;22.10;42.50
29201;DHT22;16244;51.956;12.980;2023-04-21T11:23:50;22.10;48.70
29201;DHT22;16244;51.956;12.980;2023-04-21T11:26:30;22.20;47.90
29201;DHT22;16244;51.956;12.980;2023-04-21T11:29:02;22.10;46.90
29201;DHT22;16244;51.956;12.980;2023-04-21T11:31:33;22.00;44.00
29201;DHT22;16244;51.956;12.980;2023-04-21T11:34:03;21.90;45.30
29201;DHT22;16244;51.956;12.980;2023-04-21T11:36:31;22.10;46.40
29201;DHT22;16244;51.956;12.980;2023-04-21T11:39:03;22.10;44.60
29201;DHT22;16244;51.956;12.980;2023-04-21T11:41:34;22.40;44.60
29201;DHT22;16244;51.956;12.980;2023-04-21T11:44:02;22.30;44.80
29201;DHT22;16244;51.956;12.980;2023-04-21T11:46:29;22.20;47.10
29201;DHT22;16244;51.956;12.980;2023-04-21T11:49:01;22.10;43.80
29201;DHT22;16244;51.956;12.980;2023-04-21T11:51:36;21.80;44.20
29201;DHT22;16244;51.956;12.980;2023-04-21T11:54:07;21.80;45.40
29201;DHT22;16244;51.956;12.980;2023-04-21T11:56:35;21.60;44.10
29201;DHT22;16244;51.956;12.980;2023-04-21T11:59:06;21.50;47.60
29201;DHT22;16244;51.956;12.980;2023-04-21T12:01:34;21.10;49.90
29201;DHT22;16244;51.956;12.980;2023-04-21T12:04:03;21.00;44.50
29201;DHT22;16244;51.956;12.980;2023-04-21T12:06:31;20.70;44.70
29201;DHT22;16244;51.956;12.980;2023-04-21T12:09:00;20.60;49.90
29201;DHT22;16244;51.956;12.980;2023-04-21T12:11:30;20.50;51.30
29201;DHT22;16244;51.956;12.980;2023-04-21T12:13:58;20.50;49.10
29201;DHT22;16244;51.956;12.980;2023-04-21T12:16:27;20.40;49.10
29201;DHT22;16244;51.956;12.980;2023-04-21T12:18:55;20.30;48.40
29201;DHT22;16244;51.956;12.980;2023-04-21T12:21:27;20.20;52.10
29201;DHT22;16244;51.956;12.980;2023-04-21T12:23:56;20.20;49.30
29201;DHT22;16244;51.956;12.980;2023-04-21T12:26:23;20.20;50.30
29201;DHT22;16244;51.956;12.980;2023-04-21T12:28:51;20.20;48.50
29201;DHT22;16244;51.956;12.980;2023-04-21T12:31:19;20.10;49.70
29201;DHT22;16244;51.956;12.980;2023-04-21T12:33:47;20.00;50.20
29201;DHT22;16244;51.956;12.980;2023-04-21T12:36:16;19.90;49.10
29201;DHT22;16244;51.956;12.980;2023-04-21T12:38:45;19.90;53.50
29201;DHT22;16244;51.956;12.980;2023-04-21T12:41:13;19.90;49.50
29201;DHT22;16244;51.956;12.980;2023-04-21T12:43:40;19.90;48.00
29201;DHT22;16244;51.956;12.980;2023-04-21T12:46:08;19.90;50.70
29201;DHT22;16244;51.956;12.980;2023-04-21T12:48:35;20.00;50.00
29201;DHT22;16244;51.956;12.980;2023-04-21T12:51:03;19.90;53.80
29201;DHT22;16244;51.956;12.980;2023-04-21T12:53:31;19.90;54.90
29201;DHT22;16244;51.956;12.980;2023-04-21T12:56:00;19.90;52.20
29201;DHT22;16244;51.956;12.980;2023-04-21T12:58:27;19.80;50.10
29201;DHT22;16244;51.956;12.980;2023-04-21T13:00:56;19.80;51.90
29201;DHT22;16244;51.956;12.980;2023-04-21T13:03:24;19.90;53.70
29201;DHT22;16244;51.956;12.980;2023-04-21T13:05:59;19.90;58.20
29201;DHT22;16244;51.956;12.980;2023-04-21T13:08:26;20.00;57.00
29201;DHT22;16244;51.956;12.980;2023-04-21T13:10:54;20.00;53.00
29201;DHT22;16244;51.956;12.980;2023-04-21T13:13:23;20.00;54.30
29201;DHT22;16244;51.956;12.980;2023-04-21T13:15:54;20.00;49.60
29201;DHT22;16244;51.956;12.980;2023-04-21T13:18:22;19.90;51.30
29201;DHT22;16244;51.956;12.980;2023-04-21T13:20:50;19.90;52.20
29201;DHT22;16244;51.956;12.980;2023-04-21T13:23:17;19.90;57.90
29201;DHT22;16244;51.956;12.980;2023-04-21T13:25:45;19.90;53.60
29201;DHT22;16244;51.956;12.980;2023-04-21T13:28:13;19.90;51.20
29201;DHT22;16244;51.956;12.980;2023-04-21T13:30:46;20.00;56.60
29201;DHT22;16244;51.956;12.980;2023-04-21T13:33:14;19.90;54.30
29201;DHT22;16244;51.956;12.980;2023-04-21T13:35:41;19.90;51.70
29201;DHT22;16244;51.956;12.980;2023-04-21T13:38:09;20.00;52.20
29201;DHT22;16244;51.956;12.980;2023-04-21T13:40:40;19.90;55.20
29201;DHT22;16244;51.956;12.980;2023-04-21T13:43:07;19.80;51.50
29201;DHT22;16244;51.956;12.980;2023-04-21T13:45:35;19.90;53.50
29201;DHT22;16244;51.956;12.980;2023-04-21T13:48:05;19.90;53.60
29201;DHT22;16244;51.956;12.980;2023-04-21T13:50:32;20.00;51.60
29201;DHT22;16244;51.956;12.980;2023-04-21T13:53:00;20.00;53.20
29201;DHT22;16244;51.956;12.980;2023-04-21T13:55:28;20.00;51.00
29201;DHT22;16244;51.956;12.980;2023-04-21T13:57:57;20.10;53.20
29201;DHT22;16244;51.956;12.980;2023-04-21T14:00:24;20.00;52.50
29201;DHT22;16244;51.956;12.980;2023-04-21T14:02:53;20.10;51.60
29201;DHT22;16244;51.956;12.980;2023-04-21T14:05:22;20.20;48.80
29201;DHT22;16244;51.956;12.980;2023-04-21T14:07:50;20.00;50.50
29201;DHT22;16244;51.956;12.980;2023-04-21T14:10:20;20.30;53.10
29201;DHT22;16244;51.956;12.980;2023-04-21T14:12:47;20.70;51.50
29201;DHT22;16244;51.956;12.980;2023-04-21T14:15:15;21.10;47.70
29201;DHT22;16244;51.956;12.980;2023-04-21T14:17:43;21.40;48.40
29201;DHT22;16244;51.956;12.980;2023-04-21T14:20:10;21.70;49.00
29201;DHT22;16244;51.956;12.980;2023-04-21T14:22:42;21.80;46.50
29201;DHT22;16244;51.956;12.980;2023-04-21T14:25:10;21.80;45.10
29201;DHT22;16244;51.956;12.980;2023-04-21T14:27:37;21.70;46.20
29201;DHT22;16244;51.956;12.980;2023-04-21T14:30:06;21.90;47.30
29201;DHT22;16244;51.956;12.980;2023-04-21T14:32:36;21.90;47.60
29201;DHT22;16244;51.956;12.980;2023-04-21T14:35:10;22.20;45.90
29201;DHT22;16244;51.956;12.980;2023-04-21T14:37:41;22.40;43.20
29201;DHT22;16244;51.956;12.980;2023-04-21T14:40:11;22.20;47.70
29201;DHT22;16244;51.956;12.980;2023-04-21T14:42:39;22.10;46.50
29201;DHT22;16244;51.956;12.980;2023-04-21T14:45:11;21.90;44.40
29201;DHT22;16244;51.956;12.980;2023-04-21T14:47:42;21.60;46.00
29201;DHT22;16244;51.956;12.980;2023-04-21T14:50:10;21.40;47.40
29201;DHT22;16244;51.956;12.980;2023-04-21T14:52:37;21.50;48.10
29201;DHT22;16244;51.956;12.980;2023-04-21T14:55:07;21.80;46.00
29201;DHT22;16244;51.956;12.980;2023-04-21T14:57:35;22.10;46.70
29201;DHT22;16244;51.956;12.980;2023-04-21T15:00:04;22.00;48.40
29201;DHT22;16244;51.956;12.980;2023-04-21T15:02:33;21.70;46.40
29201;DHT22;16244;51.956;12.980;2023-04-21T15:05:00;21.80;46.80
29201;DHT22;16244;51.956;12.980;2023-04-21T15:07:28;21.90;47.10
29201;DHT22;16244;51.956;12.980;2023-04-21T15:09:55;21.70;45.00
29201;DHT22;16244;51.956;12.980;2023-04-21T15:12:25;21.40;46.50
29201;DHT22;16244;51.956;12.980;2023-04-21T15:14:55;21.40;48.30
29201;DHT22;16244;51.956;12.980;2023-04-21T15:17:22;21.40;48.40
29201;DHT22;16244;51.956;12.980;2023-04-21T15:19:50;21.30;47.60
29201;DHT22;16244;51.956;12.980;2023-04-21T15:22:18;21.10;46.50
29201;DHT22;16244;51.956;12.980;2023-04-21T15:24:45;21.50;47.00
29201;DHT22;16244;51.956;12.980;2023-04-21T15:27:13;21.10;48.80
29201;DHT22;16244;51.956;12.980;2023-04-21T15:29:43;21.30;48.70
29201;DHT22;16244;51.956;12.980;2023-04-21T15:32:11;21.30;48.60
29201;DHT22;16244;51.956;12.980;2023-04-21T15:34:38;20.90;47.40